Overview Statistics Trail Chart Weather Telemetry Raw packets
 

This is the latest recevied weather packets stored in our database for station/object SV7GBF-2. If no packets are shown the sender has not sent any weather packets the latest 10 day(s).

<< 14 15 16 17 18 19 20 >>
Time Temp. Humidity Pressure Rain* Wind** Luminosity Snow
1788368045 28.89° C 24% 1015 hPa - - - -
1788366845 29.44° C 23% 1015 hPa - - - -
1788366245 30° C 22% 1015 hPa - - - -
1788364444 30.56° C 22% 1015 hPa - - - -
1788363845 30.56° C 22% 1015 hPa - - - -
1788363251 30.56° C 22% 1015 hPa - - - -
1788362645 30.56° C 26% 1015 hPa - - - -
1788362046 31.11° C 23% 1015 hPa - - - -
1788361446 31.67° C 21% 1015 hPa - - - -
1788360246 31.67° C 21% 1015 hPa - - - -
1788359645 31.67° C 21% 1015 hPa - - - -
1788359048 31.67° C 18% 1015 hPa - - - -
1788358446 32.78° C 15% 1015 hPa - - - -
1788357845 32.22° C 15% 1015 hPa - - - -
1788357245 31.11° C 18% 1016 hPa - - - -
1788356645 31.67° C 15% 1016 hPa - - - -
1788356045 31.67° C 17% 1016 hPa - - - -
1788355445 31.67° C 13% 1016 hPa - - - -
1788354846 31.67° C 15% 1016 hPa - - - -
1788354247 31.67° C 18% 1016 hPa - - - -
1788353647 31.67° C 18% 1016 hPa - - - -
1788353047 32.22° C 18% 1016 hPa - - - -
1788352446 31.67° C 19% 1016 hPa - - - -
1788351846 31.67° C 21% 1016 hPa - - - -
1788351247 31.11° C - 1016 hPa - - - -

* Rain since midnight (hover to see other rain measurements)
** Current wind speed in m/s (hover to see current wind gust speed)